createdAt,value
2023-03-21T00:00:46.015Z,96892.97
2023-03-21T00:03:15.507Z,96886.03
2023-03-21T00:05:49.829Z,96889.53
2023-03-21T00:08:17.492Z,96889.69
2023-03-21T00:10:45.760Z,96890.69
2023-03-21T00:13:14.028Z,96880.63
2023-03-21T00:16:06.173Z,96882.13
2023-03-21T00:18:41.865Z,96869.94
2023-03-21T00:21:39.600Z,96870.03
2023-03-21T00:24:03.027Z,96868.13
2023-03-21T00:26:31.592Z,96856.44
2023-03-21T00:28:59.310Z,96867.38
2023-03-21T00:31:27.219Z,96863.97
2023-03-21T00:33:54.722Z,96862.19
2023-03-21T00:36:25.805Z,96864.41
2023-03-21T00:38:53.486Z,96855.25
2023-03-21T00:41:35.233Z,96856.91
2023-03-21T00:44:08.731Z,96853.97
2023-03-21T00:46:45.618Z,96854.19
2023-03-21T00:49:14.875Z,96853.00
2023-03-21T00:51:44.512Z,96846.00
2023-03-21T00:54:13.310Z,96848.88
2023-03-21T00:56:40.914Z,96844.91
2023-03-21T00:59:08.547Z,96843.13
2023-03-21T01:01:36.185Z,96850.13
2023-03-21T01:04:05.582Z,96838.38
2023-03-21T01:06:34.122Z,96840.16
2023-03-21T01:09:02.963Z,96842.31
2023-03-21T01:11:30.667Z,96832.41
2023-03-21T01:14:14.787Z,96830.34
2023-03-21T01:16:46.801Z,96834.75
2023-03-21T01:19:25.029Z,96833.31
2023-03-21T01:21:53.967Z,96829.22
2023-03-21T01:24:22.908Z,96822.56
2023-03-21T01:26:50.431Z,96822.94
2023-03-21T01:29:17.968Z,96825.25
2023-03-21T01:31:45.567Z,96825.59
2023-03-21T01:34:13.429Z,96830.03
2023-03-21T01:36:41.066Z,96826.88
2023-03-21T01:39:08.637Z,96826.88
2023-03-21T01:41:43.461Z,96825.25
2023-03-21T01:44:16.023Z,96828.84
2023-03-21T01:46:57.076Z,96826.41
2023-03-21T01:49:34.333Z,96820.22
2023-03-21T01:52:14.006Z,96829.50
2023-03-21T01:54:44.527Z,96824.28
2023-03-21T01:57:19.786Z,96821.66
2023-03-21T01:59:51.208Z,96826.88
2023-03-21T02:02:23.235Z,96825.88
2023-03-21T02:04:55.974Z,96823.47
2023-03-21T02:07:28.787Z,96825.25
2023-03-21T02:09:57.392Z,96818.41
2023-03-21T02:12:27.404Z,96815.16
2023-03-21T02:14:56.840Z,96807.72
2023-03-21T02:17:32.113Z,96811.28
2023-03-21T02:20:28.296Z,96809.69
2023-03-21T02:23:29.175Z,96806.59
2023-03-21T02:26:18.372Z,96809.56
2023-03-21T02:28:56.929Z,96798.03
2023-03-21T02:31:40.744Z,96801.00
2023-03-21T02:34:32.708Z,96793.22
2023-03-21T02:37:07.372Z,96793.25
2023-03-21T02:39:49.483Z,96799.13
2023-03-21T02:42:22.750Z,96787.34
2023-03-21T02:44:59.376Z,96787.66
2023-03-21T02:47:34.544Z,96781.31
2023-03-21T02:50:10.173Z,96781.13
2023-03-21T02:52:41.465Z,96775.25
2023-03-21T02:55:14.191Z,96782.44
2023-03-21T02:57:45.236Z,96782.13
2023-03-21T03:00:19.002Z,96785.09
2023-03-21T03:02:48.880Z,96780.69
2023-03-21T03:05:21.758Z,96779.91
2023-03-21T03:08:18.506Z,96780.53
2023-03-21T03:10:59.549Z,96776.13
2023-03-21T03:13:43.788Z,96780.53
2023-03-21T03:16:22.845Z,96778.91
2023-03-21T03:18:54.179Z,96781.88
2023-03-21T03:21:25.986Z,96781.22
2023-03-21T03:23:58.893Z,96784.34
2023-03-21T03:26:31.196Z,96780.28
2023-03-21T03:29:02.819Z,96783.09
2023-03-21T03:31:34.575Z,96776.59
2023-03-21T03:34:07.093Z,96785.75
2023-03-21T03:36:38.992Z,96781.03
2023-03-21T03:39:11.587Z,96777.16
2023-03-21T03:42:05.967Z,96782.38
2023-03-21T03:44:33.389Z,96775.06
2023-03-21T03:47:06.934Z,96782.25
2023-03-21T03:49:38.672Z,96784.22
2023-03-21T03:52:13.038Z,96784.56
2023-03-21T03:54:44.960Z,96776.91
2023-03-21T03:57:13.925Z,96776.28
2023-03-21T03:59:43.067Z,96775.28
2023-03-21T04:02:10.960Z,96776.13
2023-03-21T04:04:38.890Z,96778.53
2023-03-21T04:07:07.738Z,96778.72
2023-03-21T04:09:44.234Z,96769.47
2023-03-21T04:12:14.334Z,96771.72
2023-03-21T04:14:47.176Z,96766.66
2023-03-21T04:17:15.687Z,96761.66
2023-03-21T04:19:43.516Z,96762.63
2023-03-21T04:22:11.866Z,96755.16
2023-03-21T04:24:39.934Z,96753.88
2023-03-21T04:27:07.742Z,96762.66
2023-03-21T04:29:36.620Z,96756.81
2023-03-21T04:32:04.295Z,96752.25
2023-03-21T04:34:31.830Z,96750.47
2023-03-21T04:36:59.385Z,96757.44
2023-03-21T04:39:26.952Z,96756.16
2023-03-21T04:41:54.455Z,96757.81
2023-03-21T04:44:22.062Z,96757.44
2023-03-21T04:46:51.765Z,96762.13
2023-03-21T04:49:19.472Z,96757.56
2023-03-21T04:51:46.933Z,96753.50
2023-03-21T04:56:42.821Z,96755.97
2023-03-21T04:59:12.646Z,96758.03
2023-03-21T05:01:41.202Z,96755.09
2023-03-21T05:04:10.813Z,96757.34
2023-03-21T05:06:38.476Z,96762.91
2023-03-21T05:09:07.032Z,96763.25
2023-03-21T05:11:37.761Z,96767.19
2023-03-21T05:14:05.792Z,96767.53
2023-03-21T05:16:34.792Z,96773.06
2023-03-21T05:19:04.968Z,96772.63
2023-03-21T05:21:41.294Z,96775.56
2023-03-21T05:24:12.243Z,96770.53
2023-03-21T05:26:40.518Z,96763.53
2023-03-21T05:29:08.779Z,96765.13
2023-03-21T05:31:36.465Z,96761.72
2023-03-21T05:34:04.235Z,96765.34
2023-03-21T05:58:56.699Z,96770.00
2023-03-21T06:01:25.037Z,96778.16
2023-03-21T06:17:49.747Z,96769.53
2023-03-21T06:20:52.138Z,96770.81
2023-03-21T06:34:28.530Z,96774.47
2023-03-21T06:47:25.411Z,96769.09
2023-03-21T07:00:38.336Z,96786.25
2023-03-21T07:03:06.033Z,96788.97
2023-03-21T07:05:36.607Z,96786.31
2023-03-21T07:08:05.335Z,96791.97
2023-03-21T07:10:32.981Z,96782.72
2023-03-21T07:13:01.197Z,96788.41
2023-03-21T07:15:28.734Z,96781.34
2023-03-21T07:17:56.402Z,96774.63
2023-03-21T07:20:24.032Z,96774.63
2023-03-21T07:22:52.888Z,96774.63
2023-03-21T07:25:20.741Z,96772.31
2023-03-21T07:27:48.264Z,96767.22
2023-03-21T07:30:16.626Z,96767.94
2023-03-21T07:32:45.586Z,96765.44
2023-03-21T07:35:16.013Z,96776.78
2023-03-21T07:37:44.080Z,96771.84
2023-03-21T07:40:14.008Z,96778.53
2023-03-21T07:42:42.115Z,96778.94
2023-03-21T07:45:11.271Z,96773.19
2023-03-21T07:47:38.786Z,96775.09
2023-03-21T07:50:06.993Z,96779.97
2023-03-21T07:52:34.499Z,96784.81
2023-03-21T07:55:02.018Z,96777.25
2023-03-21T07:57:30.852Z,96782.56
2023-03-21T07:59:58.432Z,96776.47
2023-03-21T08:02:26.503Z,96777.19
2023-03-21T08:04:54.033Z,96775.91
2023-03-21T08:07:21.589Z,96777.44
2023-03-21T08:09:49.238Z,96781.56
2023-03-21T08:12:16.845Z,96782.09
2023-03-21T08:14:46.170Z,96771.81
2023-03-21T08:17:13.674Z,96777.19
2023-03-21T08:19:41.205Z,96773.22
2023-03-21T08:22:08.820Z,96761.06
2023-03-21T08:24:36.318Z,96771.22
2023-03-21T08:27:03.896Z,96773.19
2023-03-21T08:29:31.428Z,96774.97
2023-03-21T08:32:00.399Z,96766.00
2023-03-21T08:34:27.914Z,96763.16
2023-03-21T08:36:55.507Z,96756.69
2023-03-21T08:39:24.855Z,96759.00
2023-03-21T08:41:52.439Z,96759.25
2023-03-21T08:44:20.190Z,96754.72
2023-03-21T08:46:47.777Z,96759.22
2023-03-21T08:49:16.613Z,96752.38
2023-03-21T08:51:45.803Z,96757.66
2023-03-21T08:54:20.622Z,96756.72
2023-03-21T08:56:48.657Z,96750.94
2023-03-21T08:59:16.415Z,96759.66
2023-03-21T09:01:44.424Z,96750.22
2023-03-21T09:04:12.022Z,96760.75
2023-03-21T09:06:47.854Z,96757.56
2023-03-21T09:09:15.457Z,96750.69
2023-03-21T09:11:43.141Z,96750.94
2023-03-21T09:14:11.711Z,96749.31
2023-03-21T09:16:39.439Z,96746.28
2023-03-21T09:19:08.639Z,96748.09
2023-03-21T09:21:36.766Z,96745.88
2023-03-21T09:24:06.581Z,96744.28
2023-03-21T09:26:34.895Z,96736.81
2023-03-21T09:29:03.090Z,96740.25
2023-03-21T09:31:30.939Z,96739.81
2023-03-21T09:33:58.907Z,96743.44
2023-03-21T09:36:27.289Z,96740.19
2023-03-21T09:38:56.933Z,96742.22
2023-03-21T09:41:42.015Z,96736.94
2023-03-21T09:44:24.719Z,96737.31
2023-03-21T09:46:59.440Z,96742.28
2023-03-21T09:49:31.060Z,96742.41
2023-03-21T09:52:03.583Z,96738.28
2023-03-21T09:54:34.758Z,96734.94
2023-03-21T09:57:14.951Z,96726.44
2023-03-21T09:59:42.936Z,96728.56
2023-03-21T10:02:35.951Z,96728.22
2023-03-21T10:05:09.432Z,96724.97
2023-03-21T10:07:41.787Z,96722.13
2023-03-21T10:10:17.590Z,96718.16
2023-03-21T10:12:48.769Z,96719.28
2023-03-21T10:15:19.287Z,96715.47
2023-03-21T10:17:53.815Z,96705.88
2023-03-21T10:20:23.837Z,96705.41
2023-03-21T10:22:53.532Z,96706.78
2023-03-21T10:25:25.361Z,96695.97
2023-03-21T10:27:54.319Z,96700.78
2023-03-21T10:30:29.553Z,96699.00
2023-03-21T10:33:02.405Z,96696.47
2023-03-21T10:37:59.052Z,96684.66
2023-03-21T10:40:26.570Z,96686.44
2023-03-21T10:42:57.538Z,96677.41
2023-03-21T10:45:25.516Z,96676.06
2023-03-21T10:47:55.377Z,96679.66
2023-03-21T10:50:26.600Z,96676.09
2023-03-21T10:53:00.425Z,96679.97
2023-03-21T10:55:31.999Z,96677.88
2023-03-21T10:58:07.650Z,96685.63
2023-03-21T11:00:38.386Z,96681.38
2023-03-21T11:03:06.866Z,96676.03
2023-03-21T11:05:38.446Z,96673.59
2023-03-21T11:08:08.050Z,96669.22
2023-03-21T11:10:38.001Z,96661.72
2023-03-21T11:13:18.091Z,96659.06
2023-03-21T11:15:53.789Z,96662.03
2023-03-21T11:18:23.717Z,96664.47
2023-03-21T11:20:54.010Z,96655.34
2023-03-21T11:23:23.041Z,96641.25
2023-03-21T11:25:51.812Z,96646.66
2023-03-21T11:28:23.667Z,96650.44
2023-03-21T11:30:54.412Z,96649.63
2023-03-21T11:33:27.007Z,96652.03
2023-03-21T11:36:02.830Z,96641.94
2023-03-21T11:38:33.221Z,96635.75
2023-03-21T11:41:03.037Z,96628.25
2023-03-21T11:43:35.931Z,96639.41
2023-03-21T11:46:08.326Z,96629.00
2023-03-21T11:48:39.032Z,96625.25
2023-03-21T11:51:17.838Z,96627.66
2023-03-21T11:53:50.000Z,96627.16
2023-03-21T11:56:23.275Z,96618.63
2023-03-21T11:59:06.879Z,96621.00
2023-03-21T12:01:43.137Z,96615.69
2023-03-21T12:04:21.722Z,96611.69
2023-03-21T12:06:57.350Z,96616.00
2023-03-21T12:09:35.932Z,96612.56
2023-03-21T12:12:22.057Z,96605.88
2023-03-21T12:15:02.215Z,96603.66
2023-03-21T12:17:41.429Z,96587.38
2023-03-21T12:20:27.338Z,96586.56
2023-03-21T12:23:12.020Z,96582.88
2023-03-21T12:25:44.814Z,96583.91
2023-03-21T12:28:32.491Z,96577.41
2023-03-21T12:31:10.450Z,96568.63
2023-03-21T12:33:50.280Z,96562.38
2023-03-21T12:36:31.754Z,96559.69
2023-03-21T12:39:13.368Z,96567.28
2023-03-21T12:41:46.551Z,96558.63
2023-03-21T12:44:16.388Z,96559.94
2023-03-21T12:46:48.458Z,96553.53
2023-03-21T12:49:19.157Z,96557.31
2023-03-21T12:51:52.185Z,96552.88
2023-03-21T12:54:26.478Z,96553.31
2023-03-21T12:57:02.726Z,96549.59
2023-03-21T12:59:37.167Z,96541.81
2023-03-21T13:21:01.824Z,96529.72
2023-03-21T13:23:37.249Z,96530.53
2023-03-21T13:26:09.323Z,96531.06
2023-03-21T13:28:39.688Z,96524.56
2023-03-21T13:31:19.709Z,96526.78
2023-03-21T13:33:50.744Z,96523.03
2023-03-21T13:36:25.848Z,96530.63
2023-03-21T13:38:56.234Z,96530.19
2023-03-21T13:41:31.421Z,96521.81
2023-03-21T13:44:09.892Z,96526.22
2023-03-21T13:46:53.475Z,96526.66
2023-03-21T13:49:29.259Z,96523.16
2023-03-21T13:52:01.304Z,96520.84
2023-03-21T13:54:44.681Z,96519.38
2023-03-21T13:57:24.679Z,96511.47
2023-03-21T14:00:21.089Z,96506.66
2023-03-21T14:02:59.946Z,96509.41
2023-03-21T14:05:29.491Z,96507.69
2023-03-21T14:08:13.650Z,96515.25
2023-03-21T14:10:46.140Z,96508.69
2023-03-21T14:13:18.389Z,96503.19
2023-03-21T14:15:55.198Z,96499.16
2023-03-21T14:18:52.498Z,96502.13
2023-03-21T14:21:23.815Z,96495.16
2023-03-21T14:23:59.733Z,96493.88
2023-03-21T14:26:30.296Z,96491.22
2023-03-21T14:28:58.696Z,96490.97
2023-03-21T14:31:27.540Z,96488.69
2023-03-21T14:33:58.780Z,96490.72
2023-03-21T14:36:28.401Z,96484.88
2023-03-21T14:39:05.181Z,96485.91
2023-03-21T14:41:34.725Z,96481.00
2023-03-21T14:44:14.942Z,96477.66
2023-03-21T14:46:43.579Z,96474.91
2023-03-21T14:49:13.064Z,96476.72
2023-03-21T14:51:42.479Z,96478.44
2023-03-21T14:54:17.581Z,96478.34
2023-03-21T14:56:48.301Z,96475.13
2023-03-21T14:59:18.543Z,96474.53
2023-03-21T15:01:48.565Z,96469.13
2023-03-21T15:04:17.715Z,96472.00
2023-03-21T15:06:53.708Z,96467.97
2023-03-21T15:09:27.153Z,96482.22
2023-03-21T15:11:56.454Z,96467.69
2023-03-21T15:14:31.515Z,96473.38
2023-03-21T15:17:02.070Z,96470.63
2023-03-21T15:19:33.573Z,96470.50
2023-03-21T15:22:09.740Z,96466.81
2023-03-21T15:24:42.407Z,96471.88
2023-03-21T15:27:17.471Z,96465.22
2023-03-21T15:29:46.200Z,96461.44
2023-03-21T15:32:18.383Z,96465.75
2023-03-21T15:34:47.111Z,96460.56
2023-03-21T15:37:19.025Z,96462.50
2023-03-21T15:39:49.318Z,96462.50
2023-03-21T15:42:31.095Z,96464.09
2023-03-21T15:45:02.350Z,96456.44
2023-03-21T15:47:50.983Z,96456.06
2023-03-21T15:50:27.583Z,96456.50
2023-03-21T15:52:56.939Z,96455.69
2023-03-21T15:55:30.640Z,96452.72
2023-03-21T15:58:04.574Z,96461.47
2023-03-21T16:00:39.732Z,96454.91
2023-03-21T16:03:17.177Z,96460.00
2023-03-21T16:06:03.125Z,96464.09
2023-03-21T16:08:35.790Z,96465.34
2023-03-21T16:11:17.353Z,96465.59
2023-03-21T16:13:44.970Z,96471.66
2023-03-21T16:16:18.053Z,96466.72
2023-03-21T16:18:45.842Z,96466.97
2023-03-21T16:21:14.754Z,96467.03
2023-03-21T16:23:45.905Z,96465.06
2023-03-21T16:26:17.496Z,96472.72
2023-03-21T16:28:46.015Z,96471.34
2023-03-21T16:31:16.405Z,96474.19
2023-03-21T16:33:44.379Z,96468.19
2023-03-21T16:36:15.559Z,96477.78
2023-03-21T16:38:43.271Z,96468.03
2023-03-21T16:41:11.953Z,96472.50
2023-03-21T16:43:43.252Z,96482.56
2023-03-21T16:46:14.544Z,96469.88
2023-03-21T16:48:42.527Z,96478.56
2023-03-21T16:51:14.013Z,96479.41
2023-03-21T16:53:41.644Z,96472.38
2023-03-21T16:56:15.645Z,96476.22
2023-03-21T16:58:44.613Z,96478.94
2023-03-21T17:01:15.478Z,96471.47
2023-03-21T17:03:43.904Z,96473.88
2023-03-21T17:06:15.469Z,96475.91
2023-03-21T17:08:43.219Z,96472.94
2023-03-21T17:11:11.710Z,96475.97
2023-03-21T17:13:39.300Z,96477.00
2023-03-21T17:16:08.824Z,96481.22
2023-03-21T17:18:36.403Z,96483.25
2023-03-21T17:21:04.369Z,96481.06
2023-03-21T17:23:31.921Z,96475.44
2023-03-21T17:25:59.599Z,96480.94
2023-03-21T17:28:27.203Z,96483.75
2023-03-21T17:30:54.828Z,96481.78
2023-03-21T17:33:23.891Z,96484.81
2023-03-21T17:35:51.477Z,96478.97
2023-03-21T17:38:19.099Z,96485.84
2023-03-21T17:40:46.812Z,96487.88
2023-03-21T17:43:18.275Z,96493.56
2023-03-21T17:45:45.929Z,96493.56
2023-03-21T17:48:13.530Z,96490.34
2023-03-21T17:50:43.224Z,96486.53
2023-03-21T17:53:10.835Z,96475.03
2023-03-21T17:55:38.406Z,96483.56
2023-03-21T17:58:06.297Z,96489.66
2023-03-21T18:00:33.922Z,96487.88
2023-03-21T18:03:01.516Z,96482.91
2023-03-21T18:05:29.779Z,96484.72
2023-03-21T18:08:13.896Z,96496.09
2023-03-21T18:10:42.905Z,96496.31
2023-03-21T18:13:11.486Z,96500.78
2023-03-21T18:15:44.176Z,96499.78
2023-03-21T18:18:12.969Z,96502.00
2023-03-21T18:20:58.539Z,96502.25
2023-03-21T18:23:27.792Z,96506.72
2023-03-21T18:25:55.567Z,96507.31
2023-03-21T18:28:23.240Z,96521.47
2023-03-21T18:33:40.411Z,96518.63
2023-03-21T18:36:08.941Z,96504.13
2023-03-21T18:38:38.341Z,96515.03
2023-03-21T18:41:07.629Z,96513.03
2023-03-21T18:46:24.204Z,96522.13
2023-03-21T18:48:52.424Z,96519.91
2023-03-21T18:51:20.068Z,96521.13
2023-03-21T18:53:49.110Z,96523.16
2023-03-21T18:59:05.874Z,96522.75
2023-03-21T19:07:07.723Z,96523.38
2023-03-21T19:12:25.919Z,96512.28
2023-03-21T19:14:53.515Z,96512.28
2023-03-21T19:20:11.989Z,96516.31
2023-03-21T19:22:39.616Z,96508.69
2023-03-21T19:25:10.695Z,96509.66
2023-03-21T19:27:39.791Z,96508.06
2023-03-21T19:30:15.279Z,96512.28
2023-03-21T19:32:51.235Z,96512.09
2023-03-21T19:35:20.223Z,96514.13
2023-03-21T19:37:48.564Z,96517.13
2023-03-21T19:40:22.466Z,96521.16
2023-03-21T19:42:50.696Z,96516.50
2023-03-21T19:45:18.334Z,96511.50
2023-03-21T19:47:46.269Z,96518.34
2023-03-21T19:53:01.768Z,96518.34
2023-03-21T19:55:30.903Z,96516.72
2023-03-21T19:57:58.875Z,96524.97
2023-03-21T20:00:26.497Z,96518.94
2023-03-21T20:02:54.333Z,96521.97
2023-03-21T20:05:22.283Z,96518.13
2023-03-21T20:07:57.094Z,96508.88
2023-03-21T20:10:34.858Z,96507.63
2023-03-21T20:13:03.973Z,96506.41
2023-03-21T20:15:32.260Z,96506.22
2023-03-21T20:18:00.241Z,96497.75
2023-03-21T20:20:28.049Z,96507.00
2023-03-21T20:23:06.810Z,96505.00
2023-03-21T20:25:34.899Z,96498.97
2023-03-21T20:28:15.791Z,96507.00
2023-03-21T20:30:48.617Z,96509.03
2023-03-21T20:33:16.194Z,96504.19
2023-03-21T20:36:30.888Z,96497.53
2023-03-21T20:38:31.880Z,96507.59
2023-03-21T20:40:59.444Z,96506.19
2023-03-21T20:44:17.463Z,96507.81
2023-03-21T20:46:17.439Z,96512.63
2023-03-21T20:48:48.756Z,96506.22
2023-03-21T20:52:12.398Z,96504.16
2023-03-21T20:54:05.159Z,96494.50
2023-03-21T20:56:32.997Z,96494.09
2023-03-21T20:59:15.707Z,96494.50
2023-03-21T21:01:45.410Z,96488.44
2023-03-21T21:04:19.237Z,96481.19
2023-03-21T21:06:47.689Z,96483.00
2023-03-21T21:09:15.522Z,96490.44
2023-03-21T21:12:06.055Z,96501.75
2023-03-21T21:14:31.964Z,96504.16
2023-03-21T21:17:02.593Z,96504.38
2023-03-21T21:19:36.051Z,96502.56
2023-03-21T21:22:03.635Z,96502.38
2023-03-21T21:24:32.031Z,96507.38
2023-03-21T21:26:59.560Z,96504.56
2023-03-21T21:29:28.323Z,96514.63
2023-03-21T21:31:57.228Z,96515.66
2023-03-21T21:34:24.787Z,96514.69
2023-03-21T21:36:52.336Z,96524.94
2023-03-21T21:39:21.870Z,96526.31
2023-03-21T21:41:49.656Z,96516.69
2023-03-21T21:44:19.221Z,96528.56
2023-03-21T21:46:47.114Z,96525.34
2023-03-21T21:49:16.466Z,96528.56
2023-03-21T21:51:47.732Z,96531.19
2023-03-21T21:54:18.227Z,96530.16
2023-03-21T21:56:48.220Z,96530.97
2023-03-21T21:59:17.085Z,96528.94
2023-03-21T22:01:46.632Z,96532.38
2023-03-21T22:04:17.963Z,96534.41
2023-03-21T22:06:47.507Z,96525.69
2023-03-21T22:09:15.813Z,96522.25
2023-03-21T22:11:43.724Z,96523.28
2023-03-21T22:14:11.227Z,96523.66
2023-03-21T22:16:38.777Z,96517.41
2023-03-21T22:19:06.430Z,96521.44
2023-03-21T22:21:35.311Z,96521.00
2023-03-21T22:24:02.836Z,96521.41
2023-03-21T22:26:30.543Z,96510.72
2023-03-21T22:28:59.852Z,96512.94
2023-03-21T22:31:27.527Z,96508.88
2023-03-21T22:33:55.090Z,96515.53
2023-03-21T22:36:22.588Z,96508.06
2023-03-21T22:38:51.456Z,96507.66
2023-03-21T22:41:18.991Z,96498.56
2023-03-21T22:43:46.536Z,96498.16
2023-03-21T22:46:14.068Z,96499.53
2023-03-21T22:48:41.862Z,96505.53
2023-03-21T22:51:10.328Z,96503.94
2023-03-21T22:53:37.858Z,96494.69
2023-03-21T22:56:07.812Z,96500.09
2023-03-21T22:58:35.519Z,96503.13
2023-03-21T23:01:05.171Z,96506.09
2023-03-21T23:03:32.777Z,96500.25
2023-03-21T23:06:01.406Z,96497.03
2023-03-21T23:08:29.151Z,96502.66
2023-03-21T23:10:56.994Z,96497.00
2023-03-21T23:13:26.670Z,96497.19
2023-03-21T23:15:54.221Z,96502.44
2023-03-21T23:18:21.872Z,96488.53
2023-03-21T23:20:50.245Z,96501.81
2023-03-21T23:23:18.321Z,96497.75
2023-03-21T23:25:46.152Z,96503.19
2023-03-21T23:28:13.723Z,96497.34
2023-03-21T23:30:42.575Z,96496.91
2023-03-21T23:33:10.145Z,96508.44
2023-03-21T23:35:38.344Z,96508.28
2023-03-21T23:38:06.373Z,96512.09
2023-03-21T23:40:33.912Z,96507.69
2023-03-21T23:43:01.444Z,96503.44
2023-03-21T23:45:28.984Z,96499.41
2023-03-21T23:47:57.856Z,96502.22
2023-03-21T23:50:25.428Z,96498.19
2023-03-21T23:52:52.972Z,96496.59
2023-03-21T23:55:20.651Z,96495.38
2023-03-21T23:57:49.777Z,96497.59
